sensor_id;sensor_type;location;lat;lon;timestamp;temperature;humidity
33837;DHT22;20140;49.356;8.812;2024-02-23T00:02:11;8.70;99.90
33837;DHT22;20140;49.356;8.812;2024-02-23T00:04:37;8.70;99.90
33837;DHT22;20140;49.356;8.812;2024-02-23T00:07:02;8.60;99.90
33837;DHT22;20140;49.356;8.812;2024-02-23T00:09:28;8.70;99.90
33837;DHT22;20140;49.356;8.812;2024-02-23T00:11:54;8.60;99.90
33837;DHT22;20140;49.356;8.812;2024-02-23T00:14:19;8.60;99.90
33837;DHT22;20140;49.356;8.812;2024-02-23T00:16:45;8.60;99.90
33837;DHT22;20140;49.356;8.812;2024-02-23T00:19:11;8.60;99.90
33837;DHT22;20140;49.356;8.812;2024-02-23T00:21:37;8.60;99.90
33837;DHT22;20140;49.356;8.812;2024-02-23T00:24:03;8.50;99.90
33837;DHT22;20140;49.356;8.812;2024-02-23T00:26:29;8.50;99.90
33837;DHT22;20140;49.356;8.812;2024-02-23T00:28:55;8.40;99.90
33837;DHT22;20140;49.356;8.812;2024-02-23T00:31:21;8.40;99.90
33837;DHT22;20140;49.356;8.812;2024-02-23T00:33:47;8.40;99.90
33837;DHT22;20140;49.356;8.812;2024-02-23T00:36:12;8.30;99.90
33837;DHT22;20140;49.356;8.812;2024-02-23T00:38:38;8.30;99.90
33837;DHT22;20140;49.356;8.812;2024-02-23T00:41:03;8.20;99.90
33837;DHT22;20140;49.356;8.812;2024-02-23T00:43:29;8.20;99.90
33837;DHT22;20140;49.356;8.812;2024-02-23T00:45:55;8.20;99.90
33837;DHT22;20140;49.356;8.812;2024-02-23T00:50:46;8.10;99.90
33837;DHT22;20140;49.356;8.812;2024-02-23T00:53:12;8.20;99.90
33837;DHT22;20140;49.356;8.812;2024-02-23T00:55:37;8.10;99.90
33837;DHT22;20140;49.356;8.812;2024-02-23T00:58:03;8.10;99.90
33837;DHT22;20140;49.356;8.812;2024-02-23T01:00:29;8.00;99.90
33837;DHT22;20140;49.356;8.812;2024-02-23T01:02:54;8.00;99.90
33837;DHT22;20140;49.356;8.812;2024-02-23T01:05:20;8.00;99.90
33837;DHT22;20140;49.356;8.812;2024-02-23T01:07:45;8.00;99.90
33837;DHT22;20140;49.356;8.812;2024-02-23T01:10:11;7.90;99.90
33837;DHT22;20140;49.356;8.812;2024-02-23T01:12:37;7.90;99.90
33837;DHT22;20140;49.356;8.812;2024-02-23T01:15:03;7.80;99.90
33837;DHT22;20140;49.356;8.812;2024-02-23T01:17:28;7.90;99.90
33837;DHT22;20140;49.356;8.812;2024-02-23T01:19:54;7.80;99.90
33837;DHT22;20140;49.356;8.812;2024-02-23T01:22:19;7.90;99.90
33837;DHT22;20140;49.356;8.812;2024-02-23T01:24:45;7.80;99.90
33837;DHT22;20140;49.356;8.812;2024-02-23T01:27:11;7.80;99.90
33837;DHT22;20140;49.356;8.812;2024-02-23T01:29:36;7.80;99.90
33837;DHT22;20140;49.356;8.812;2024-02-23T01:32:02;7.70;99.90
33837;DHT22;20140;49.356;8.812;2024-02-23T01:34:28;7.60;99.90
33837;DHT22;20140;49.356;8.812;2024-02-23T01:36:53;7.60;99.90
33837;DHT22;20140;49.356;8.812;2024-02-23T01:39:19;7.60;99.90
33837;DHT22;20140;49.356;8.812;2024-02-23T01:41:45;7.50;99.90
33837;DHT22;20140;49.356;8.812;2024-02-23T01:44:11;7.50;99.90
33837;DHT22;20140;49.356;8.812;2024-02-23T01:46:37;7.50;99.90
33837;DHT22;20140;49.356;8.812;2024-02-23T01:49:03;7.50;99.90
33837;DHT22;20140;49.356;8.812;2024-02-23T01:51:29;7.50;99.90
33837;DHT22;20140;49.356;8.812;2024-02-23T01:53:55;7.40;99.90
33837;DHT22;20140;49.356;8.812;2024-02-23T01:56:20;7.50;99.90
33837;DHT22;20140;49.356;8.812;2024-02-23T01:58:46;7.40;99.90
33837;DHT22;20140;49.356;8.812;2024-02-23T02:01:12;7.40;99.90
33837;DHT22;20140;49.356;8.812;2024-02-23T02:03:38;7.50;99.90
33837;DHT22;20140;49.356;8.812;2024-02-23T02:06:05;7.50;99.90
33837;DHT22;20140;49.356;8.812;2024-02-23T02:08:33;7.50;99.90
33837;DHT22;20140;49.356;8.812;2024-02-23T02:10:58;7.50;99.90
33837;DHT22;20140;49.356;8.812;2024-02-23T02:13:24;7.50;99.90
33837;DHT22;20140;49.356;8.812;2024-02-23T02:15:49;7.50;99.90
33837;DHT22;20140;49.356;8.812;2024-02-23T02:18:15;7.50;99.90
33837;DHT22;20140;49.356;8.812;2024-02-23T02:20:53;7.50;99.90
33837;DHT22;20140;49.356;8.812;2024-02-23T02:23:19;7.50;99.90
33837;DHT22;20140;49.356;8.812;2024-02-23T02:25:45;7.50;99.90
33837;DHT22;20140;49.356;8.812;2024-02-23T02:28:10;7.40;99.90
33837;DHT22;20140;49.356;8.812;2024-02-23T02:30:37;7.40;99.90
33837;DHT22;20140;49.356;8.812;2024-02-23T02:33:03;7.40;99.90
33837;DHT22;20140;49.356;8.812;2024-02-23T02:35:28;7.50;99.90
33837;DHT22;20140;49.356;8.812;2024-02-23T02:37:54;7.40;99.90
33837;DHT22;20140;49.356;8.812;2024-02-23T02:40:19;7.40;99.90
33837;DHT22;20140;49.356;8.812;2024-02-23T02:42:45;7.40;99.90
33837;DHT22;20140;49.356;8.812;2024-02-23T02:45:10;7.40;99.90
33837;DHT22;20140;49.356;8.812;2024-02-23T02:47:36;7.40;99.90
33837;DHT22;20140;49.356;8.812;2024-02-23T02:50:02;7.40;99.90
33837;DHT22;20140;49.356;8.812;2024-02-23T02:52:28;7.40;99.90
33837;DHT22;20140;49.356;8.812;2024-02-23T02:54:54;7.40;99.90
33837;DHT22;20140;49.356;8.812;2024-02-23T02:57:19;7.30;99.90
33837;DHT22;20140;49.356;8.812;2024-02-23T02:59:45;7.30;99.90
33837;DHT22;20140;49.356;8.812;2024-02-23T03:02:11;7.30;99.90
33837;DHT22;20140;49.356;8.812;2024-02-23T03:04:37;7.30;99.90
33837;DHT22;20140;49.356;8.812;2024-02-23T03:07:02;7.40;99.90
33837;DHT22;20140;49.356;8.812;2024-02-23T03:09:28;7.30;99.90
33837;DHT22;20140;49.356;8.812;2024-02-23T03:11:53;7.30;99.90
33837;DHT22;20140;49.356;8.812;2024-02-23T03:14:19;7.30;99.90
33837;DHT22;20140;49.356;8.812;2024-02-23T03:16:46;7.30;99.90
33837;DHT22;20140;49.356;8.812;2024-02-23T03:19:13;7.30;99.90
33837;DHT22;20140;49.356;8.812;2024-02-23T03:21:38;7.30;99.90
33837;DHT22;20140;49.356;8.812;2024-02-23T03:24:04;7.30;99.90
33837;DHT22;20140;49.356;8.812;2024-02-23T03:26:29;7.30;99.90
33837;DHT22;20140;49.356;8.812;2024-02-23T03:28:55;7.20;99.90
33837;DHT22;20140;49.356;8.812;2024-02-23T03:31:20;7.20;99.90
33837;DHT22;20140;49.356;8.812;2024-02-23T03:33:46;7.20;99.90
33837;DHT22;20140;49.356;8.812;2024-02-23T03:36:11;7.20;99.90
33837;DHT22;20140;49.356;8.812;2024-02-23T03:38:37;7.30;99.90
33837;DHT22;20140;49.356;8.812;2024-02-23T03:41:03;7.20;99.90
33837;DHT22;20140;49.356;8.812;2024-02-23T03:43:28;7.20;99.90
33837;DHT22;20140;49.356;8.812;2024-02-23T03:45:54;7.20;99.90
33837;DHT22;20140;49.356;8.812;2024-02-23T03:48:19;7.20;99.90
33837;DHT22;20140;49.356;8.812;2024-02-23T03:50:46;7.20;99.90
33837;DHT22;20140;49.356;8.812;2024-02-23T03:53:11;7.20;99.90
33837;DHT22;20140;49.356;8.812;2024-02-23T03:55:37;7.20;99.90
33837;DHT22;20140;49.356;8.812;2024-02-23T03:58:02;7.30;99.90
33837;DHT22;20140;49.356;8.812;2024-02-23T04:00:28;7.20;99.90
33837;DHT22;20140;49.356;8.812;2024-02-23T04:02:53;7.20;99.90
33837;DHT22;20140;49.356;8.812;2024-02-23T04:05:19;7.20;99.90
33837;DHT22;20140;49.356;8.812;2024-02-23T04:07:45;7.20;99.90
33837;DHT22;20140;49.356;8.812;2024-02-23T04:10:10;7.20;99.90
33837;DHT22;20140;49.356;8.812;2024-02-23T04:12:36;7.20;99.90
33837;DHT22;20140;49.356;8.812;2024-02-23T04:15:01;7.20;99.90
33837;DHT22;20140;49.356;8.812;2024-02-23T04:17:27;7.20;99.90
33837;DHT22;20140;49.356;8.812;2024-02-23T04:19:52;7.10;99.90
33837;DHT22;20140;49.356;8.812;2024-02-23T04:22:18;7.10;99.90
33837;DHT22;20140;49.356;8.812;2024-02-23T04:24:43;7.00;99.90
33837;DHT22;20140;49.356;8.812;2024-02-23T04:27:09;6.90;99.90
33837;DHT22;20140;49.356;8.812;2024-02-23T04:29:35;6.90;99.90
33837;DHT22;20140;49.356;8.812;2024-02-23T04:32:01;6.80;99.90
33837;DHT22;20140;49.356;8.812;2024-02-23T04:34:27;6.50;99.90
33837;DHT22;20140;49.356;8.812;2024-02-23T04:36:53;6.50;99.90
33837;DHT22;20140;49.356;8.812;2024-02-23T04:39:19;6.50;99.90
33837;DHT22;20140;49.356;8.812;2024-02-23T04:41:44;6.50;99.90
33837;DHT22;20140;49.356;8.812;2024-02-23T04:44:10;6.60;99.90
33837;DHT22;20140;49.356;8.812;2024-02-23T04:46:36;6.60;99.90
33837;DHT22;20140;49.356;8.812;2024-02-23T04:49:01;6.70;99.90
33837;DHT22;20140;49.356;8.812;2024-02-23T04:51:27;6.60;99.90
33837;DHT22;20140;49.356;8.812;2024-02-23T04:53:53;6.70;99.90
33837;DHT22;20140;49.356;8.812;2024-02-23T04:56:19;6.70;99.90
33837;DHT22;20140;49.356;8.812;2024-02-23T04:58:47;6.70;99.90
33837;DHT22;20140;49.356;8.812;2024-02-23T05:01:12;6.70;99.90
33837;DHT22;20140;49.356;8.812;2024-02-23T05:03:38;6.60;99.90
33837;DHT22;20140;49.356;8.812;2024-02-23T05:06:04;6.60;99.90
33837;DHT22;20140;49.356;8.812;2024-02-23T05:08:30;6.60;99.90
33837;DHT22;20140;49.356;8.812;2024-02-23T05:10:56;6.60;99.90
33837;DHT22;20140;49.356;8.812;2024-02-23T05:13:22;6.70;99.90
33837;DHT22;20140;49.356;8.812;2024-02-23T05:15:47;6.50;99.90
33837;DHT22;20140;49.356;8.812;2024-02-23T05:18:13;6.60;99.90
33837;DHT22;20140;49.356;8.812;2024-02-23T05:20:38;6.50;99.90
33837;DHT22;20140;49.356;8.812;2024-02-23T05:23:04;6.50;99.90
33837;DHT22;20140;49.356;8.812;2024-02-23T05:25:29;6.50;99.90
33837;DHT22;20140;49.356;8.812;2024-02-23T05:27:55;6.50;99.90
33837;DHT22;20140;49.356;8.812;2024-02-23T05:30:20;6.50;99.90
33837;DHT22;20140;49.356;8.812;2024-02-23T05:32:47;6.50;99.90
33837;DHT22;20140;49.356;8.812;2024-02-23T05:35:12;6.50;99.90
33837;DHT22;20140;49.356;8.812;2024-02-23T05:40:04;6.40;99.90
33837;DHT22;20140;49.356;8.812;2024-02-23T05:42:38;6.30;99.90
33837;DHT22;20140;49.356;8.812;2024-02-23T05:45:04;6.30;99.90
33837;DHT22;20140;49.356;8.812;2024-02-23T05:47:30;6.40;99.90
33837;DHT22;20140;49.356;8.812;2024-02-23T05:49:56;6.30;99.90
33837;DHT22;20140;49.356;8.812;2024-02-23T05:52:22;6.30;99.90
33837;DHT22;20140;49.356;8.812;2024-02-23T06:11:49;6.30;99.90
33837;DHT22;20140;49.356;8.812;2024-02-23T06:14:15;6.20;99.90
33837;DHT22;20140;49.356;8.812;2024-02-23T06:16:40;6.20;99.90
33837;DHT22;20140;49.356;8.812;2024-02-23T06:19:06;6.20;99.90
33837;DHT22;20140;49.356;8.812;2024-02-23T06:23:58;6.20;99.90
33837;DHT22;20140;49.356;8.812;2024-02-23T06:26:23;6.20;99.90
33837;DHT22;20140;49.356;8.812;2024-02-23T06:28:49;6.20;99.90
33837;DHT22;20140;49.356;8.812;2024-02-23T06:31:15;6.10;99.90
33837;DHT22;20140;49.356;8.812;2024-02-23T06:33:40;6.10;99.90
33837;DHT22;20140;49.356;8.812;2024-02-23T06:36:06;6.10;99.90
33837;DHT22;20140;49.356;8.812;2024-02-23T06:38:33;6.10;99.90
33837;DHT22;20140;49.356;8.812;2024-02-23T06:40:58;6.10;99.90
33837;DHT22;20140;49.356;8.812;2024-02-23T06:43:24;6.10;99.90
33837;DHT22;20140;49.356;8.812;2024-02-23T06:45:50;6.00;99.90
33837;DHT22;20140;49.356;8.812;2024-02-23T06:48:15;6.00;99.90
33837;DHT22;20140;49.356;8.812;2024-02-23T06:50:41;6.00;99.90
33837;DHT22;20140;49.356;8.812;2024-02-23T06:53:06;6.00;99.90
33837;DHT22;20140;49.356;8.812;2024-02-23T06:55:33;6.00;99.90
33837;DHT22;20140;49.356;8.812;2024-02-23T06:57:59;6.00;99.90
33837;DHT22;20140;49.356;8.812;2024-02-23T07:00:24;6.00;99.90
33837;DHT22;20140;49.356;8.812;2024-02-23T07:02:50;5.90;99.90
33837;DHT22;20140;49.356;8.812;2024-02-23T07:05:15;5.90;99.90
33837;DHT22;20140;49.356;8.812;2024-02-23T07:07:41;5.90;99.90
33837;DHT22;20140;49.356;8.812;2024-02-23T07:10:07;5.90;99.90
33837;DHT22;20140;49.356;8.812;2024-02-23T07:12:33;5.90;99.90
33837;DHT22;20140;49.356;8.812;2024-02-23T07:14:59;5.90;99.90
33837;DHT22;20140;49.356;8.812;2024-02-23T07:17:24;5.90;99.90
33837;DHT22;20140;49.356;8.812;2024-02-23T07:19:50;5.80;99.90
33837;DHT22;20140;49.356;8.812;2024-02-23T07:22:17;5.80;99.90
33837;DHT22;20140;49.356;8.812;2024-02-23T07:24:46;5.80;99.90
33837;DHT22;20140;49.356;8.812;2024-02-23T07:27:11;5.90;99.90
33837;DHT22;20140;49.356;8.812;2024-02-23T07:29:37;5.90;99.90
33837;DHT22;20140;49.356;8.812;2024-02-23T07:32:03;5.90;99.90
33837;DHT22;20140;49.356;8.812;2024-02-23T07:34:30;5.90;99.90
33837;DHT22;20140;49.356;8.812;2024-02-23T07:36:56;6.00;99.90
33837;DHT22;20140;49.356;8.812;2024-02-23T07:39:22;6.00;99.90
33837;DHT22;20140;49.356;8.812;2024-02-23T07:41:47;6.00;99.90
33837;DHT22;20140;49.356;8.812;2024-02-23T07:44:13;6.00;99.90
33837;DHT22;20140;49.356;8.812;2024-02-23T07:46:39;5.80;99.90
33837;DHT22;20140;49.356;8.812;2024-02-23T07:49:05;5.90;99.90
33837;DHT22;20140;49.356;8.812;2024-02-23T07:51:33;5.90;99.90
33837;DHT22;20140;49.356;8.812;2024-02-23T07:53:58;5.90;99.90
33837;DHT22;20140;49.356;8.812;2024-02-23T07:56:24;5.80;99.90
33837;DHT22;20140;49.356;8.812;2024-02-23T07:58:49;5.80;99.90
33837;DHT22;20140;49.356;8.812;2024-02-23T08:01:15;5.80;99.90
33837;DHT22;20140;49.356;8.812;2024-02-23T08:03:41;5.80;99.90
33837;DHT22;20140;49.356;8.812;2024-02-23T08:06:07;5.80;99.90
33837;DHT22;20140;49.356;8.812;2024-02-23T08:08:32;5.80;99.90
33837;DHT22;20140;49.356;8.812;2024-02-23T08:11:03;5.90;99.90
33837;DHT22;20140;49.356;8.812;2024-02-23T08:13:29;5.90;99.90
33837;DHT22;20140;49.356;8.812;2024-02-23T08:15:55;6.00;99.90
33837;DHT22;20140;49.356;8.812;2024-02-23T08:18:20;6.10;99.90
33837;DHT22;20140;49.356;8.812;2024-02-23T08:20:47;6.20;99.90
33837;DHT22;20140;49.356;8.812;2024-02-23T08:23:13;6.20;99.90
33837;DHT22;20140;49.356;8.812;2024-02-23T08:25:39;6.30;99.90
33837;DHT22;20140;49.356;8.812;2024-02-23T08:28:04;6.40;99.90
33837;DHT22;20140;49.356;8.812;2024-02-23T08:30:30;6.40;99.90
33837;DHT22;20140;49.356;8.812;2024-02-23T08:32:55;6.50;99.90
33837;DHT22;20140;49.356;8.812;2024-02-23T08:35:21;6.60;99.90
33837;DHT22;20140;49.356;8.812;2024-02-23T08:37:46;6.70;99.90
33837;DHT22;20140;49.356;8.812;2024-02-23T08:40:12;6.80;99.90
33837;DHT22;20140;49.356;8.812;2024-02-23T08:42:37;6.90;99.90
33837;DHT22;20140;49.356;8.812;2024-02-23T08:45:03;7.00;99.90
33837;DHT22;20140;49.356;8.812;2024-02-23T08:47:29;7.20;99.90
33837;DHT22;20140;49.356;8.812;2024-02-23T08:49:58;7.30;99.90
33837;DHT22;20140;49.356;8.812;2024-02-23T08:52:24;7.30;99.90
33837;DHT22;20140;49.356;8.812;2024-02-23T08:54:51;7.40;99.90
33837;DHT22;20140;49.356;8.812;2024-02-23T08:57:16;7.30;99.90
33837;DHT22;20140;49.356;8.812;2024-02-23T08:59:45;7.30;99.90
33837;DHT22;20140;49.356;8.812;2024-02-23T09:02:11;7.40;99.90
33837;DHT22;20140;49.356;8.812;2024-02-23T09:04:36;7.50;99.90
33837;DHT22;20140;49.356;8.812;2024-02-23T09:07:02;7.40;99.90
33837;DHT22;20140;49.356;8.812;2024-02-23T09:09:27;7.40;99.90
33837;DHT22;20140;49.356;8.812;2024-02-23T09:11:53;7.40;99.90
33837;DHT22;20140;49.356;8.812;2024-02-23T09:14:18;7.40;99.90
33837;DHT22;20140;49.356;8.812;2024-02-23T09:16:44;7.30;99.90
33837;DHT22;20140;49.356;8.812;2024-02-23T09:19:11;7.30;99.90
33837;DHT22;20140;49.356;8.812;2024-02-23T09:21:37;7.40;99.90
33837;DHT22;20140;49.356;8.812;2024-02-23T09:24:03;7.50;99.90
33837;DHT22;20140;49.356;8.812;2024-02-23T09:26:29;7.60;99.90
33837;DHT22;20140;49.356;8.812;2024-02-23T09:28:54;7.80;99.90
33837;DHT22;20140;49.356;8.812;2024-02-23T09:31:20;7.80;99.90
33837;DHT22;20140;49.356;8.812;2024-02-23T09:33:45;7.90;99.90
33837;DHT22;20140;49.356;8.812;2024-02-23T09:36:12;7.90;99.90
33837;DHT22;20140;49.356;8.812;2024-02-23T09:38:37;8.00;99.90
33837;DHT22;20140;49.356;8.812;2024-02-23T09:41:03;8.00;99.90
33837;DHT22;20140;49.356;8.812;2024-02-23T09:43:29;8.10;99.90
33837;DHT22;20140;49.356;8.812;2024-02-23T09:45:58;8.10;99.90
33837;DHT22;20140;49.356;8.812;2024-02-23T09:48:24;8.10;99.90
33837;DHT22;20140;49.356;8.812;2024-02-23T09:50:52;8.10;99.90
33837;DHT22;20140;49.356;8.812;2024-02-23T09:53:19;8.10;99.90
33837;DHT22;20140;49.356;8.812;2024-02-23T09:55:47;8.20;99.90
33837;DHT22;20140;49.356;8.812;2024-02-23T09:58:14;8.20;99.90
33837;DHT22;20140;49.356;8.812;2024-02-23T10:00:42;8.20;99.90
33837;DHT22;20140;49.356;8.812;2024-02-23T10:03:08;8.20;99.90
33837;DHT22;20140;49.356;8.812;2024-02-23T10:05:34;8.20;99.90
33837;DHT22;20140;49.356;8.812;2024-02-23T10:07:59;8.30;99.90
33837;DHT22;20140;49.356;8.812;2024-02-23T10:10:30;8.40;99.90
33837;DHT22;20140;49.356;8.812;2024-02-23T10:12:58;8.40;99.90
33837;DHT22;20140;49.356;8.812;2024-02-23T10:15:24;8.60;99.90
33837;DHT22;20140;49.356;8.812;2024-02-23T10:17:49;8.50;99.90
33837;DHT22;20140;49.356;8.812;2024-02-23T10:20:15;8.60;99.90
33837;DHT22;20140;49.356;8.812;2024-02-23T10:22:40;8.60;99.90
33837;DHT22;20140;49.356;8.812;2024-02-23T10:25:06;8.70;99.90
33837;DHT22;20140;49.356;8.812;2024-02-23T10:27:32;8.70;99.90
33837;DHT22;20140;49.356;8.812;2024-02-23T10:29:58;8.70;99.90
33837;DHT22;20140;49.356;8.812;2024-02-23T10:32:25;8.60;99.90
33837;DHT22;20140;49.356;8.812;2024-02-23T10:34:55;8.70;99.90
33837;DHT22;20140;49.356;8.812;2024-02-23T10:37:25;8.90;99.90
33837;DHT22;20140;49.356;8.812;2024-02-23T10:39:55;9.00;99.90
33837;DHT22;20140;49.356;8.812;2024-02-23T10:42:23;9.10;99.90
33837;DHT22;20140;49.356;8.812;2024-02-23T10:44:50;9.30;99.90
33837;DHT22;20140;49.356;8.812;2024-02-23T10:47:16;9.40;99.90
33837;DHT22;20140;49.356;8.812;2024-02-23T10:49:44;9.60;99.90
33837;DHT22;20140;49.356;8.812;2024-02-23T10:52:11;9.50;99.90
33837;DHT22;20140;49.356;8.812;2024-02-23T10:54:39;9.40;99.90
33837;DHT22;20140;49.356;8.812;2024-02-23T10:57:05;9.50;99.90
33837;DHT22;20140;49.356;8.812;2024-02-23T10:59:31;9.40;99.90
33837;DHT22;20140;49.356;8.812;2024-02-23T11:01:58;9.40;99.90
33837;DHT22;20140;49.356;8.812;2024-02-23T11:04:26;9.40;99.90
33837;DHT22;20140;49.356;8.812;2024-02-23T11:06:54;9.70;99.90
33837;DHT22;20140;49.356;8.812;2024-02-23T11:09:24;10.00;99.90
33837;DHT22;20140;49.356;8.812;2024-02-23T11:11:57;9.90;99.90
33837;DHT22;20140;49.356;8.812;2024-02-23T11:14:30;9.90;99.90
33837;DHT22;20140;49.356;8.812;2024-02-23T11:16:56;10.00;99.90
33837;DHT22;20140;49.356;8.812;2024-02-23T11:19:40;10.00;99.90
33837;DHT22;20140;49.356;8.812;2024-02-23T11:22:09;9.80;99.90
33837;DHT22;20140;49.356;8.812;2024-02-23T11:24:43;9.80;99.90
33837;DHT22;20140;49.356;8.812;2024-02-23T11:27:14;9.80;99.90
33837;DHT22;20140;49.356;8.812;2024-02-23T11:29:42;9.70;99.90
33837;DHT22;20140;49.356;8.812;2024-02-23T11:32:16;9.60;99.90
33837;DHT22;20140;49.356;8.812;2024-02-23T11:34:54;9.50;99.90
33837;DHT22;20140;49.356;8.812;2024-02-23T11:37:21;9.60;99.90
33837;DHT22;20140;49.356;8.812;2024-02-23T11:39:46;9.80;99.90
33837;DHT22;20140;49.356;8.812;2024-02-23T11:42:12;9.90;99.90
33837;DHT22;20140;49.356;8.812;2024-02-23T11:44:37;10.00;99.90
33837;DHT22;20140;49.356;8.812;2024-02-23T11:47:03;10.10;99.90
33837;DHT22;20140;49.356;8.812;2024-02-23T11:49:29;10.30;99.90
33837;DHT22;20140;49.356;8.812;2024-02-23T11:51:55;10.30;99.90
33837;DHT22;20140;49.356;8.812;2024-02-23T11:54:21;10.10;99.90
33837;DHT22;20140;49.356;8.812;2024-02-23T11:56:48;10.10;99.90
33837;DHT22;20140;49.356;8.812;2024-02-23T11:59:15;10.10;99.90
33837;DHT22;20140;49.356;8.812;2024-02-23T12:01:41;10.20;99.90
33837;DHT22;20140;49.356;8.812;2024-02-23T12:04:07;10.10;99.90
33837;DHT22;20140;49.356;8.812;2024-02-23T12:06:33;9.90;99.90
33837;DHT22;20140;49.356;8.812;2024-02-23T12:09:00;9.80;99.90
33837;DHT22;20140;49.356;8.812;2024-02-23T12:11:25;9.90;99.90
33837;DHT22;20140;49.356;8.812;2024-02-23T12:13:51;10.00;99.90
33837;DHT22;20140;49.356;8.812;2024-02-23T12:16:17;9.90;99.90
33837;DHT22;20140;49.356;8.812;2024-02-23T12:18:42;10.10;99.90
33837;DHT22;20140;49.356;8.812;2024-02-23T12:21:08;9.90;99.90
33837;DHT22;20140;49.356;8.812;2024-02-23T12:23:41;9.90;99.90
33837;DHT22;20140;49.356;8.812;2024-02-23T12:26:08;9.80;99.90
33837;DHT22;20140;49.356;8.812;2024-02-23T12:28:34;9.70;99.90
33837;DHT22;20140;49.356;8.812;2024-02-23T12:31:00;9.60;99.90
33837;DHT22;20140;49.356;8.812;2024-02-23T12:33:31;9.60;99.90
33837;DHT22;20140;49.356;8.812;2024-02-23T12:35:58;9.50;99.90
33837;DHT22;20140;49.356;8.812;2024-02-23T12:38:24;9.50;99.90
33837;DHT22;20140;49.356;8.812;2024-02-23T12:40:51;9.50;99.90
33837;DHT22;20140;49.356;8.812;2024-02-23T12:43:17;9.50;99.90
33837;DHT22;20140;49.356;8.812;2024-02-23T12:45:43;9.40;99.90
33837;DHT22;20140;49.356;8.812;2024-02-23T12:48:17;9.40;99.90
33837;DHT22;20140;49.356;8.812;2024-02-23T12:50:43;9.40;99.90
33837;DHT22;20140;49.356;8.812;2024-02-23T12:55:54;9.30;99.90
33837;DHT22;20140;49.356;8.812;2024-02-23T12:58:19;9.30;99.90
33837;DHT22;20140;49.356;8.812;2024-02-23T13:00:45;9.40;99.90
33837;DHT22;20140;49.356;8.812;2024-02-23T13:03:11;9.40;99.90
33837;DHT22;20140;49.356;8.812;2024-02-23T13:05:37;9.40;99.90
33837;DHT22;20140;49.356;8.812;2024-02-23T13:08:02;9.50;99.90
33837;DHT22;20140;49.356;8.812;2024-02-23T13:10:28;9.60;99.90
33837;DHT22;20140;49.356;8.812;2024-02-23T13:12:54;9.70;99.90
33837;DHT22;20140;49.356;8.812;2024-02-23T13:15:19;9.80;99.90
33837;DHT22;20140;49.356;8.812;2024-02-23T13:17:45;9.90;99.90
33837;DHT22;20140;49.356;8.812;2024-02-23T13:20:11;10.10;99.90
33837;DHT22;20140;49.356;8.812;2024-02-23T13:22:38;10.10;99.90
33837;DHT22;20140;49.356;8.812;2024-02-23T13:25:04;10.20;99.90
33837;DHT22;20140;49.356;8.812;2024-02-23T13:27:29;10.30;99.90
33837;DHT22;20140;49.356;8.812;2024-02-23T13:29:55;10.30;99.90
33837;DHT22;20140;49.356;8.812;2024-02-23T13:32:21;10.30;99.90
33837;DHT22;20140;49.356;8.812;2024-02-23T13:34:46;10.20;99.90
33837;DHT22;20140;49.356;8.812;2024-02-23T13:37:12;10.30;99.90
33837;DHT22;20140;49.356;8.812;2024-02-23T13:39:37;10.10;99.90
33837;DHT22;20140;49.356;8.812;2024-02-23T13:42:03;10.20;99.90
33837;DHT22;20140;49.356;8.812;2024-02-23T13:44:30;10.30;99.90
33837;DHT22;20140;49.356;8.812;2024-02-23T13:46:56;10.50;99.90
33837;DHT22;20140;49.356;8.812;2024-02-23T13:49:22;10.50;99.90
33837;DHT22;20140;49.356;8.812;2024-02-23T13:51:47;10.50;99.90
33837;DHT22;20140;49.356;8.812;2024-02-23T13:54:13;10.50;99.90
33837;DHT22;20140;49.356;8.812;2024-02-23T13:56:38;10.50;99.90
33837;DHT22;20140;49.356;8.812;2024-02-23T13:59:04;11.20;99.90
33837;DHT22;20140;49.356;8.812;2024-02-23T14:01:29;11.30;99.90
33837;DHT22;20140;49.356;8.812;2024-02-23T14:03:55;11.20;99.90
33837;DHT22;20140;49.356;8.812;2024-02-23T14:06:20;10.90;99.90
33837;DHT22;20140;49.356;8.812;2024-02-23T14:08:46;10.80;99.90
33837;DHT22;20140;49.356;8.812;2024-02-23T14:11:13;11.20;99.90
33837;DHT22;20140;49.356;8.812;2024-02-23T14:13:39;11.40;99.90
33837;DHT22;20140;49.356;8.812;2024-02-23T14:16:04;11.20;99.90
33837;DHT22;20140;49.356;8.812;2024-02-23T14:18:31;11.30;99.90
33837;DHT22;20140;49.356;8.812;2024-02-23T14:20:57;10.90;99.90
33837;DHT22;20140;49.356;8.812;2024-02-23T14:23:23;10.80;99.90
33837;DHT22;20140;49.356;8.812;2024-02-23T14:25:48;10.60;99.90
33837;DHT22;20140;49.356;8.812;2024-02-23T14:28:14;10.50;99.90
33837;DHT22;20140;49.356;8.812;2024-02-23T14:30:39;10.40;99.90
33837;DHT22;20140;49.356;8.812;2024-02-23T14:33:06;10.30;99.90
33837;DHT22;20140;49.356;8.812;2024-02-23T14:35:31;10.20;99.90
33837;DHT22;20140;49.356;8.812;2024-02-23T14:37:57;10.00;99.90
33837;DHT22;20140;49.356;8.812;2024-02-23T14:40:22;10.00;99.90
33837;DHT22;20140;49.356;8.812;2024-02-23T14:42:48;10.20;99.90
33837;DHT22;20140;49.356;8.812;2024-02-23T14:45:13;10.40;99.90
33837;DHT22;20140;49.356;8.812;2024-02-23T14:47:42;10.40;99.90
33837;DHT22;20140;49.356;8.812;2024-02-23T14:50:10;10.30;99.90
33837;DHT22;20140;49.356;8.812;2024-02-23T14:52:35;10.40;99.90
33837;DHT22;20140;49.356;8.812;2024-02-23T14:55:01;10.40;99.90
33837;DHT22;20140;49.356;8.812;2024-02-23T14:57:26;10.20;99.90
33837;DHT22;20140;49.356;8.812;2024-02-23T14:59:52;10.10;99.90
33837;DHT22;20140;49.356;8.812;2024-02-23T15:02:19;10.00;99.90
33837;DHT22;20140;49.356;8.812;2024-02-23T15:04:45;10.00;99.90
33837;DHT22;20140;49.356;8.812;2024-02-23T15:07:11;10.00;99.90
33837;DHT22;20140;49.356;8.812;2024-02-23T15:09:36;9.90;99.90
33837;DHT22;20140;49.356;8.812;2024-02-23T15:12:05;9.80;99.90
33837;DHT22;20140;49.356;8.812;2024-02-23T15:14:30;9.90;99.90
33837;DHT22;20140;49.356;8.812;2024-02-23T15:16:56;9.80;99.90
33837;DHT22;20140;49.356;8.812;2024-02-23T15:19:21;9.80;99.90
33837;DHT22;20140;49.356;8.812;2024-02-23T15:21:48;9.80;99.90
33837;DHT22;20140;49.356;8.812;2024-02-23T15:24:21;9.80;99.90
33837;DHT22;20140;49.356;8.812;2024-02-23T15:26:49;9.60;99.90
33837;DHT22;20140;49.356;8.812;2024-02-23T15:29:17;9.50;99.90
33837;DHT22;20140;49.356;8.812;2024-02-23T15:31:46;9.60;99.90
33837;DHT22;20140;49.356;8.812;2024-02-23T15:34:12;9.60;99.90
33837;DHT22;20140;49.356;8.812;2024-02-23T15:36:38;9.50;99.90
33837;DHT22;20140;49.356;8.812;2024-02-23T15:39:07;9.50;99.90
33837;DHT22;20140;49.356;8.812;2024-02-23T15:41:33;9.40;99.90
33837;DHT22;20140;49.356;8.812;2024-02-23T15:44:05;9.30;99.90
33837;DHT22;20140;49.356;8.812;2024-02-23T15:46:30;9.30;99.90
33837;DHT22;20140;49.356;8.812;2024-02-23T15:48:56;9.40;99.90
33837;DHT22;20140;49.356;8.812;2024-02-23T15:51:23;9.40;99.90
33837;DHT22;20140;49.356;8.812;2024-02-23T15:53:49;9.40;99.90
33837;DHT22;20140;49.356;8.812;2024-02-23T15:56:17;9.30;99.90
33837;DHT22;20140;49.356;8.812;2024-02-23T15:58:42;9.30;99.90
33837;DHT22;20140;49.356;8.812;2024-02-23T16:01:08;9.30;99.90
33837;DHT22;20140;49.356;8.812;2024-02-23T16:03:33;9.30;99.90
33837;DHT22;20140;49.356;8.812;2024-02-23T16:05:59;9.20;99.90